This is the latest recevied weather packets stored in our database for station/object DH5WR-10. If no packets are shown the sender has not sent any weather packets the latest 10 day(s).
| Time | Temp. | Humidity | Pressure | Rain* | Wind** | Luminosity | Snow |
|---|---|---|---|---|---|---|---|
| 1777688546 | 7.22° C | 66% | 1024.2 hPa | - | - | - | - |
| 1777687646 | 7.78° C | 64% | 1024.2 hPa | - | - | - | - |
| 1777686745 | 7.22° C | 66% | 1024.2 hPa | - | - | - | - |
| 1777685845 | 7.78° C | 65% | 1024.3 hPa | - | - | - | - |
| 1777684945 | 7.78° C | 63% | 1024.3 hPa | - | - | - | - |
| 1777684045 | 8.33° C | 61% | 1024.3 hPa | - | - | - | - |
| 1777683145 | 8.33° C | 60% | 1024.5 hPa | - | - | - | - |
| 1777682245 | 8.33° C | 60% | 1024.5 hPa | - | - | - | - |
| 1777681345 | 8.89° C | 57% | 1024.6 hPa | - | - | - | - |
| 1777680444 | 8.89° C | 56% | 1024.8 hPa | - | - | - | - |
| 1777679544 | 8.89° C | 57% | 1025 hPa | - | - | - | - |
| 1777678644 | 9.44° C | 57% | 1025 hPa | - | - | - | - |
| 1777677744 | 9.44° C | 56% | 1025 hPa | - | - | - | - |
| 1777676844 | 10° C | 52% | 1025 hPa | - | - | - | - |
| 1777675944 | 11.11° C | 49% | 1025 hPa | - | - | - | - |
| 1777675044 | 11.11° C | 48% | 1025 hPa | - | - | - | - |
| 1777674144 | 11.67° C | 48% | 1025.2 hPa | - | - | - | - |
| 1777673243 | 11.67° C | 48% | 1025.2 hPa | - | - | - | - |
| 1777672343 | 11.67° C | 47% | 1025.2 hPa | - | - | - | - |
| 1777671443 | 12.22° C | 47% | 1025.2 hPa | - | - | - | - |
| 1777670543 | 12.22° C | 46% | 1025.3 hPa | - | - | - | - |
| 1777669643 | 12.22° C | 46% | 1025.2 hPa | - | - | - | - |
| 1777668742 | 12.78° C | 45% | 1025.2 hPa | - | - | - | - |
| 1777667842 | 13.33° C | 44% | 1025.4 hPa | - | - | - | - |
| 1777666942 | 13.33° C | 43% | 1025.3 hPa | - | - | - | - |
* Rain since midnight (hover to see other rain measurements)
** Current wind speed in m/s (hover to see current wind gust speed)